Aeroporto :
LOGIN :

Iscrizione | Disclaimer

   EN    FR    IT 

 










Sommario :    VFR   VFR Marginale   IFR   IFR Intensivo   IFR Molto Intensivo
Visibilità : 
Base nubi : 
>= 8 km
>= 3000ft
5 / 8 km
1000 / 3000 ft
1500m / 5 km
500 / 1000 ft
800 / 1500m
200 / 500 ft
< 800m
< 200 ft
Simboli :   Temporali  Nebbia  Neve Forte  Precipitazioni Forti  Vento > 20 kt
SIGMETs :   Varie  Temporali  Ghiacco  Turbolenza  Onda orograficha  Ceneri Vulcaniche






- Altitudine del aeroporto : 348 ft
- Codice IATA : TSR


LRTR - Timisoara

ULTIMO METAR :
  • 211600Z 17009KT CAVOK 13/07 Q1016

METARs OBSOLETI :
  • 211530Z 17009KT CAVOK 14/07 Q1015
  • 211500Z 18010KT CAVOK 14/08 Q1015
  • 211430Z 18011KT CAVOK 16/08 Q1015
  • 211400Z 18011KT CAVOK 16/08 Q1015
  • 211330Z 16009KT CAVOK 16/08 Q1015

TAF TAF LRTR
Valido dal 21 a 12 ore il 22 a 12 ore UTC


211100Z 2112/2212 18010KT CAVOK
BECMG 2117/2119 11010KT
BECMG 2204/2206 VRB04KT



MetMap, La meteo Aeronautica in un colpo d'occhio ! - Copyright ORBIFLY Dicembre 2007 - Disclaimer

ORBIFLY MET'MAP TEAM :

Programmazione e sviluppo : Alexandra Zaïnal
Concezione e sviluppo : Baudouin d'Aumeries
Co-Programmazione e sviluppo : Marc-Olivier Méhu
Supporto tecnico e logistico : Manuel Goepfert
Aiuto per la traduzione : Arnaldo La Scala

Contatto : metmap@orbifly.com




FONTI E CREDITI :

   NOAA